KJGG

Williamsburg-Jamestown Airport

Williamsburg, Virginia, USA
METAR KJGG 121855Z AUTO 00000KT 10SM CLR 08/M05 A3018 RMK AO1
Observed Flight Rules
Dec-12 @ 18:55 UTC (18 minutes ago) Visual Flight Rules
Visibility Clouds
10 miles
  • Clear skies
Temperatures Readings
Current 8°C / 46°F
Dewpoint -5°C / 23°F
Humidity 40%
Altimeter 30.18" Hg
Pressure 1022 hPa
Elevation 15
METAR KJGG 121855Z AUTO 00000KT 10SM CLR 08/M05 A3018 RMK AO1
Observed Flight Rules
Dec-12 @ 18:55 UTC
(18 minutes ago)
VFR
Clouds
  • Clear skies
Temperature Dewpoint
8°C / 46°F -5°C / 23°F
Humidity Altimeter Pressure
40% 30.18" Hg 1022 hPa